Time;durP1;ratioP1;P1;durP2;ratioP2;P2;SDS_P1;SDS_P2;PMS_P1;PMS_P2;Temp;Humidity;BMP_temperature;BMP_pressure;BME280_temperature;BME280_humidity;BME280_pressure;Samples;Min_cycle;Max_cycle;Signal;HPM_P1;HPM_P2
2023/10/19 00:00:59;;;;;;;190.50;72.70;;;;;;;10.34;54.72;99042.13;109767;1250;68558;-51
2023/10/19 00:03:26;;;;;;;203.70;78.10;;;;;;;10.14;55.34;99043.21;109744;1250;72535;-50
2023/10/19 00:05:55;;;;;;;178.80;72.50;;;;;;;10.18;55.12;99042.70;109637;1251;60879;-50
2023/10/19 00:08:23;;;;;;;289.20;106.00;;;;;;;10.17;55.16;99040.27;109743;1250;59431;-50
2023/10/19 00:13:50;;;;;;;405.40;155.80;;;;;;;10.17;55.24;99038.88;109043;1256;68727;-50
2023/10/19 00:16:17;;;;;;;351.70;140.30;;;;;;;10.20;55.22;99039.54;109026;1256;71539;-50
2023/10/19 00:18:48;;;;;;;331.00;131.10;;;;;;;10.00;55.83;99042.41;108949;1257;60076;-51
2023/10/19 00:21:23;;;;;;;175.60;77.60;;;;;;;9.92;56.20;99040.83;108950;1257;60125;-51
2023/10/19 00:23:57;;;;;;;255.30;112.60;;;;;;;10.00;55.96;99039.56;108936;1257;72264;-50
2023/10/19 00:26:30;;;;;;;92.60;44.10;;;;;;;9.94;56.10;99034.98;108907;1257;67910;-50
2023/10/19 00:29:00;;;;;;;92.40;44.70;;;;;;;9.81;56.50;99034.94;108934;1257;72547;-50
2023/10/19 00:31:33;;;;;;;;;;;;;;;9.79;56.59;99038.95;108869;1257;61133;-50
2023/10/19 00:34:00;;;;;;;52.90;28.70;;;;;;;9.92;56.13;99044.41;108945;1257;60107;-51
2023/10/19 00:36:30;;;;;;;114.40;50.00;;;;;;;9.93;55.96;99040.35;108971;1257;74444;-51
2023/10/19 00:38:59;;;;;;;108.60;52.10;;;;;;;9.83;56.59;99039.71;108972;1257;68616;-51
2023/10/19 00:41:29;;;;;;;121.30;51.90;;;;;;;9.71;57.16;99039.02;108975;1257;71373;-51
2023/10/19 00:44:12;;;;;;;186.20;78.00;;;;;;;9.69;57.43;99036.33;108932;1257;60542;-51
2023/10/19 00:46:43;;;;;;;147.80;68.20;;;;;;;9.88;56.85;99041.34;109014;1256;60135;-50
2023/10/19 00:49:13;;;;;;;121.90;56.80;;;;;;;9.74;57.19;99035.55;109173;1251;73235;-50
2023/10/19 00:51:54;;;;;;;138.20;65.40;;;;;;;9.84;56.79;99034.09;109733;1250;68719;-50
2023/10/19 00:54:35;;;;;;;122.10;58.90;;;;;;;9.81;56.86;99034.29;109670;1250;73025;-51
2023/10/19 00:57:08;;;;;;;109.70;51.30;;;;;;;9.86;56.84;99029.91;109595;1251;59965;-50
2023/10/19 00:59:47;;;;;;;103.50;50.20;;;;;;;9.73;57.22;99026.91;109715;1250;59004;-51
2023/10/19 01:02:19;;;;;;;170.00;74.70;;;;;;;9.76;57.13;99022.90;109183;1251;74711;-52
2023/10/19 01:04:56;;;;;;;172.40;74.00;;;;;;;9.65;57.41;99021.94;109717;1250;67505;-51
2023/10/19 01:07:27;;;;;;;88.50;42.90;;;;;;;9.60;57.61;99023.36;109712;1250;71470;-51
2023/10/19 01:09:59;;;;;;;93.30;46.30;;;;;;;9.68;57.31;99023.99;109718;1250;60988;-51
2023/10/19 01:15:13;;;;;;;90.10;43.40;;;;;;;9.49;57.77;99019.17;109594;1252;73389;-52
2023/10/19 01:17:43;;;;;;;117.80;50.30;;;;;;;9.60;57.30;99018.64;109718;1250;68826;-51
2023/10/19 01:20:22;;;;;;;79.50;39.40;;;;;;;9.54;57.55;99017.59;109780;1250;72614;-53
2023/10/19 01:23:20;;;;;;;101.10;45.60;;;;;;;9.62;57.00;99023.21;109592;1251;60064;-51
2023/10/19 01:31:14;;;;;;;123.30;49.10;;;;;;;9.38;57.72;99019.81;109494;1255;68619;-51
2023/10/19 01:33:41;;;;;;;193.70;78.70;;;;;;;9.38;57.71;99016.85;109155;1251;73834;-52
2023/10/19 01:36:12;;;;;;;190.00;76.00;;;;;;;9.43;57.32;99015.44;109634;1250;60967;-51
2023/10/19 01:38:39;;;;;;;107.60;47.80;;;;;;;9.35;57.66;99022.58;109711;1251;59021;-51
2023/10/19 01:41:13;;;;;;;113.40;51.50;;;;;;;9.26;57.79;99023.58;109367;1254;73629;-51
2023/10/19 01:43:43;;;;;;;81.60;39.50;;;;;;;9.23;57.46;99022.13;109610;1251;68704;-51
2023/10/19 01:46:13;;;;;;;62.10;31.20;;;;;;;9.17;57.41;99017.91;109143;1251;71498;-51
2023/10/19 01:48:43;;;;;;;41.80;23.50;;;;;;;9.00;58.56;99018.95;109597;1251;59733;-50
2023/10/19 01:51:11;;;;;;;71.40;36.80;;;;;;;8.96;58.53;99012.98;109620;1251;60274;-50
2023/10/19 01:53:44;;;;;;;66.30;38.50;;;;;;;8.83;59.42;99015.99;109626;1251;73930;-50
2023/10/19 01:56:14;;;;;;;60.00;36.50;;;;;;;8.94;58.86;99013.08;109508;1251;67425;-51
2023/10/19 01:58:42;;;;;;;55.90;34.20;;;;;;;8.90;58.80;99014.27;109557;1251;71464;-51
2023/10/19 02:03:42;;;;;;;57.20;35.60;;;;;;;8.61;60.18;99021.90;109570;1251;59990;-51
2023/10/19 02:06:19;;;;;;;40.30;26.50;;;;;;;8.61;59.96;99020.98;109458;1251;74539;-50
2023/10/19 02:09:00;;;;;;;44.80;28.70;;;;;;;8.49;60.42;99017.50;109664;1251;67415;-51
2023/10/19 02:11:28;;;;;;;35.60;24.80;;;;;;;8.46;60.77;99017.05;109562;1251;71144;-50
2023/10/19 02:13:59;;;;;;;38.70;25.70;;;;;;;8.66;59.35;99016.48;109502;1251;61009;-51
2023/10/19 02:16:29;;;;;;;38.40;26.10;;;;;;;8.65;59.40;99021.77;109652;1251;60163;-50
2023/10/19 02:18:56;;;;;;;47.70;28.60;;;;;;;8.58;59.86;99020.83;109164;1253;74537;-50
2023/10/19 02:21:23;;;;;;;41.50;27.10;;;;;;;8.56;59.90;99023.67;109296;1251;67606;-50
2023/10/19 02:23:52;;;;;;;38.80;26.30;;;;;;;8.47;60.23;99019.30;109522;1252;72788;-51
2023/10/19 02:26:27;;;;;;;39.10;27.70;;;;;;;8.54;59.83;99021.04;109524;1252;61081;-50
2023/10/19 02:28:55;;;;;;;39.50;25.20;;;;;;;8.38;60.62;99015.45;109556;1252;58859;-50
2023/10/19 02:31:23;;;;;;;707.50;281.70;;;;;;;8.38;60.61;99019.85;109562;1252;73904;-51
2023/10/19 02:33:58;;;;;;;255.10;100.40;;;;;;;8.35;60.64;99017.30;109577;1250;67215;-50
2023/10/19 02:36:30;;;;;;;270.30;90.50;;;;;;;8.17;61.58;99015.66;109387;1251;71605;-50
2023/10/19 02:38:59;;;;;;;312.20;100.70;;;;;;;8.11;61.83;99019.60;109745;1250;60882;-50
2023/10/19 02:41:29;;;;;;;375.00;118.50;;;;;;;8.12;61.87;99019.23;109419;1254;59977;-50
2023/10/19 02:44:05;;;;;;;433.90;139.20;;;;;;;8.06;62.22;99018.53;109368;1253;74515;-51
2023/10/19 02:46:32;;;;;;;484.80;175.00;;;;;;;7.99;62.53;99018.88;109383;1254;68532;-51
2023/10/19 02:49:13;;;;;;;138.00;50.00;;;;;;;7.84;63.58;99016.92;109375;1254;72527;-51
2023/10/19 02:51:41;;;;;;;382.90;125.20;;;;;;;7.96;63.28;99015.37;109368;1254;60966;-51
2023/10/19 02:54:08;;;;;;;343.70;107.90;;;;;;;8.16;62.14;99018.00;109367;1253;60201;-51
2023/10/19 02:56:35;;;;;;;340.40;113.20;;;;;;;8.23;61.62;99017.65;109331;1254;73959;-51
2023/10/19 02:59:05;;;;;;;436.20;145.00;;;;;;;8.25;61.59;99013.98;109360;1253;68580;-52
2023/10/19 03:01:34;;;;;;;447.00;154.60;;;;;;;8.25;61.73;99010.34;109330;1254;71883;-51
2023/10/19 03:04:02;;;;;;;255.10;96.90;;;;;;;8.30;61.25;99006.27;109313;1253;60036;-51
2023/10/19 03:06:33;;;;;;;275.50;99.00;;;;;;;8.05;62.62;98999.44;109360;1254;60555;-51
2023/10/19 03:09:12;;;;;;;102.40;46.10;;;;;;;8.08;62.29;98999.84;109391;1254;74677;-51
2023/10/19 03:11:43;;;;;;;118.30;54.90;;;;;;;8.18;61.89;99000.97;109407;1252;68462;-51
2023/10/19 03:14:13;;;;;;;157.20;64.70;;;;;;;8.21;61.59;98997.62;109574;1250;72605;-51
2023/10/19 03:16:43;;;;;;;157.50;68.90;;;;;;;8.18;61.50;98997.10;109592;1251;61182;-51
2023/10/19 03:19:10;;;;;;;172.10;72.30;;;;;;;8.12;61.62;99000.63;109504;1252;58933;-51
2023/10/19 03:21:43;;;;;;;216.60;84.20;;;;;;;8.07;61.91;98998.27;109542;1252;72407;-51
2023/10/19 03:24:23;;;;;;;95.10;44.10;;;;;;;8.04;61.87;98995.20;109542;1252;68662;-52
2023/10/19 03:26:50;;;;;;;78.40;38.70;;;;;;;7.85;63.05;98996.10;109372;1252;72681;-52
2023/10/19 03:29:26;;;;;;;83.60;40.50;;;;;;;7.90;62.80;98997.61;109467;1252;59690;-51
2023/10/19 03:31:52;;;;;;;126.40;56.90;;;;;;;7.97;62.39;99001.11;109537;1253;60110;-51
2023/10/19 03:34:23;;;;;;;103.20;50.20;;;;;;;7.93;62.48;98995.83;109419;1251;74355;-51
2023/10/19 03:36:54;;;;;;;100.20;47.10;;;;;;;7.98;62.13;98997.86;109751;1250;68773;-51
2023/10/19 03:39:21;;;;;;;95.30;47.10;;;;;;;7.96;62.18;98998.33;109720;1250;71556;-52
2023/10/19 03:41:51;;;;;;;103.20;52.90;;;;;;;7.89;62.30;98999.95;109669;1251;61105;-51
2023/10/19 03:44:24;;;;;;;85.70;44.30;;;;;;;7.82;62.88;98997.30;109565;1251;60249;-52
2023/10/19 03:47:34;;;;;;;58.30;30.70;;;;;;;7.88;62.42;99000.00;109613;1251;74421;-52
2023/10/19 03:49:41;;;;;;;52.70;30.10;;;;;;;7.75;63.12;98996.58;109492;1252;68489;-51
2023/10/19 03:54:40;;;;;;;87.90;44.00;;;;;;;7.92;61.97;98998.87;109512;1252;61177;-51
2023/10/19 03:57:16;;;;;;;51.60;31.00;;;;;;;7.86;61.92;98995.79;109466;1252;59017;-51
2023/10/19 03:59:43;;;;;;;55.90;32.10;;;;;;;7.78;62.30;98994.68;109604;1251;72617;-51
2023/10/19 04:02:12;;;;;;;50.40;30.40;;;;;;;7.83;61.77;99000.36;109519;1253;68547;-52
2023/10/19 04:04:48;;;;;;;51.10;32.70;;;;;;;7.78;62.06;98996.93;109506;1252;72738;-51
2023/10/19 04:07:21;;;;;;;47.70;30.50;;;;;;;7.84;61.72;98994.54;109501;1252;59674;-52
2023/10/19 04:10:24;;;;;;;50.50;30.40;;;;;;;7.76;62.24;98990.70;109491;1252;59158;-52
2023/10/19 04:12:42;;;;;;;50.40;29.40;;;;;;;7.71;62.55;98986.77;109609;1252;75061;-52
2023/10/19 04:15:16;;;;;;;55.30;32.90;;;;;;;7.81;62.49;98990.30;109552;1252;68916;-52
2023/10/19 04:17:45;;;;;;;54.00;30.60;;;;;;;7.91;62.29;98994.90;109388;1252;72738;-53
2023/10/19 04:22:53;;;;;;;55.20;32.50;;;;;;;7.83;62.74;98993.09;109350;1256;60491;-51
2023/10/19 04:25:20;;;;;;;55.40;32.60;;;;;;;7.93;62.55;98994.05;109519;1252;74423;-52
2023/10/19 04:27:48;;;;;;;62.90;35.40;;;;;;;8.05;61.90;98994.63;109385;1253;68499;-52
2023/10/19 04:30:16;;;;;;;74.40;37.90;;;;;;;8.06;61.71;98991.74;109569;1252;72428;-52
2023/10/19 04:32:43;;;;;;;87.80;41.80;;;;;;;8.01;61.81;98988.81;109296;1252;145897;-52
2023/10/19 04:35:13;;;;;;;85.70;40.80;;;;;;;7.95;62.21;98985.38;109527;1252;59016;-52
2023/10/19 04:37:42;;;;;;;157.50;61.70;;;;;;;8.02;62.22;98991.27;109501;1251;73230;-52
2023/10/19 04:40:10;;;;;;;112.80;50.70;;;;;;;8.10;61.81;98993.33;109569;1252;67455;-54
2023/10/19 04:42:38;;;;;;;93.10;45.20;;;;;;;8.14;61.38;98995.73;109616;1250;71009;-52
2023/10/19 04:45:05;;;;;;;214.00;90.40;;;;;;;8.03;62.05;98998.77;109652;1250;60809;-52
2023/10/19 04:47:35;;;;;;;170.30;77.40;;;;;;;7.95;62.67;98995.20;109700;1250;59034;-52
2023/10/19 04:50:05;;;;;;;126.60;56.30;;;;;;;8.12;62.21;99000.69;109757;1250;73480;-52
2023/10/19 04:52:32;;;;;;;116.70;51.20;;;;;;;8.15;62.19;99002.36;109725;1250;67710;-50
2023/10/19 04:54:59;;;;;;;91.10;44.30;;;;;;;8.11;62.52;98996.19;109722;1250;72508;-52
2023/10/19 04:57:26;;;;;;;127.30;59.40;;;;;;;8.32;61.69;98996.34;109651;1250;59943;-52
2023/10/19 04:59:52;;;;;;;92.60;46.80;;;;;;;8.32;62.00;99000.46;109343;1250;59178;-52
2023/10/19 05:02:19;;;;;;;157.10;62.70;;;;;;;8.34;61.57;99004.29;109745;1250;74635;-52
2023/10/19 05:04:46;;;;;;;169.00;71.10;;;;;;;8.41;61.56;99007.10;109728;1250;68654;-52
2023/10/19 05:07:16;;;;;;;160.90;69.50;;;;;;;8.48;61.15;99004.92;109713;1250;72481;-52
2023/10/19 05:09:43;;;;;;;130.80;58.60;;;;;;;8.54;60.83;99007.39;109621;1251;61001;-51
2023/10/19 05:12:11;;;;;;;102.90;54.10;;;;;;;8.45;61.12;99004.31;109739;1250;58948;-52
2023/10/19 05:14:38;;;;;;;108.40;57.70;;;;;;;8.46;61.44;99003.73;109730;1250;74731;-52
2023/10/19 05:17:05;;;;;;;94.30;49.40;;;;;;;8.62;61.11;99001.36;109732;1250;68437;-51
2023/10/19 05:19:32;;;;;;;78.40;46.00;;;;;;;8.75;60.75;99005.00;109709;1250;72530;-52
2023/10/19 05:22:05;;;;;;;71.90;40.90;;;;;;;8.72;60.86;99005.67;109673;1250;58988;-51
2023/10/19 05:24:32;;;;;;;86.90;45.60;;;;;;;8.80;60.58;99001.19;109732;1250;60107;-51
2023/10/19 05:26:59;;;;;;;242.60;87.80;;;;;;;8.92;60.57;99003.70;109733;1250;73284;-52
2023/10/19 05:29:26;;;;;;;193.30;76.60;;;;;;;9.04;59.79;99009.04;109684;1250;68718;-51
2023/10/19 05:31:58;;;;;;;220.70;77.60;;;;;;;9.12;59.72;99010.96;109646;1251;71110;-52
2023/10/19 05:34:26;;;;;;;334.30;111.60;;;;;;;9.13;59.53;99013.16;109654;1251;59711;-51
2023/10/19 05:36:54;;;;;;;620.50;225.00;;;;;;;9.24;59.55;99011.52;109692;1251;59203;-51
2023/10/19 05:39:20;;;;;;;188.00;70.70;;;;;;;9.10;59.99;99015.13;109737;1250;74339;-51
2023/10/19 05:41:47;;;;;;;359.80;131.10;;;;;;;9.08;59.89;99017.20;109705;1250;67605;-51
2023/10/19 05:44:13;;;;;;;268.10;97.60;;;;;;;9.19;59.82;99017.76;109645;1251;72569;-50
2023/10/19 05:46:41;;;;;;;367.80;130.70;;;;;;;9.32;59.82;99018.38;109596;1251;61153;-52
2023/10/19 05:49:08;;;;;;;118.80;54.30;;;;;;;9.30;59.64;99020.34;109420;1253;58975;-52
2023/10/19 05:51:35;;;;;;;336.00;117.80;;;;;;;9.20;59.74;99022.42;109513;1252;74541;-52
2023/10/19 05:54:03;;;;;;;347.60;137.10;;;;;;;9.41;59.59;99022.92;109534;1253;67245;-51
2023/10/19 05:56:30;;;;;;;465.90;181.20;;;;;;;9.68;58.51;99018.25;109579;1253;71800;-52
2023/10/19 05:58:57;;;;;;;324.70;119.60;;;;;;;9.44;59.09;99018.65;109540;1252;60883;-52
2023/10/19 06:01:24;;;;;;;237.40;88.70;;;;;;;9.46;59.60;99018.83;109591;1252;60333;-52
2023/10/19 06:03:51;;;;;;;251.60;96.20;;;;;;;9.58;59.33;99020.51;109524;1252;73506;-52
2023/10/19 06:06:19;;;;;;;288.20;110.90;;;;;;;9.69;58.85;99020.56;109532;1252;68688;-52
2023/10/19 06:08:46;;;;;;;326.00;128.20;;;;;;;10.12;58.04;99024.98;109355;1251;72663;-52
2023/10/19 06:11:13;;;;;;;287.90;104.40;;;;;;;10.40;56.95;99023.26;109570;1252;60975;-52
2023/10/19 06:13:40;;;;;;;184.10;73.80;;;;;;;10.57;56.67;99024.30;109565;1252;60004;-52
2023/10/19 06:16:06;;;;;;;196.60;84.40;;;;;;;10.56;56.34;99023.27;109367;1253;74950;-51
2023/10/19 06:18:33;;;;;;;106.00;51.00;;;;;;;10.87;55.41;99022.23;109193;1253;68966;-52
2023/10/19 06:21:00;;;;;;;114.50;53.70;;;;;;;11.10;55.05;99023.50;109243;1251;71552;-52
2023/10/19 06:23:27;;;;;;;127.40;58.10;;;;;;;11.21;54.86;99021.63;109567;1252;61134;-53
2023/10/19 06:25:54;;;;;;;135.70;64.50;;;;;;;11.10;54.16;99019.37;109512;1252;59143;-52
2023/10/19 06:28:21;;;;;;;120.10;55.30;;;;;;;11.29;54.10;99019.02;109573;1252;73788;-52
2023/10/19 06:30:48;;;;;;;74.20;42.20;;;;;;;11.36;53.34;99016.80;109585;1252;69250;-52
2023/10/19 06:33:15;;;;;;;76.00;43.80;;;;;;;11.32;53.45;99013.86;109499;1252;71594;-52
2023/10/19 06:35:41;;;;;;;63.90;37.40;;;;;;;11.53;53.01;99015.23;109391;1251;59955;-50
2023/10/19 06:38:09;;;;;;;57.60;37.70;;;;;;;12.01;51.77;99018.77;109496;1252;59017;-52
2023/10/19 06:40:36;;;;;;;57.50;35.60;;;;;;;11.87;52.05;99017.97;109671;1250;74704;-51
2023/10/19 06:43:05;;;;;;;49.30;29.00;;;;;;;12.32;51.06;99020.30;109624;1250;68768;-51
2023/10/19 06:45:32;;;;;;;55.50;35.70;;;;;;;12.29;50.43;99021.88;109662;1250;72673;-51
2023/10/19 06:48:01;;;;;;;47.10;32.70;;;;;;;12.29;49.94;99025.20;109624;1251;60975;-51
2023/10/19 06:50:29;;;;;;;39.40;26.10;;;;;;;12.45;49.68;99025.77;109633;1251;59011;-51
2023/10/19 06:52:55;;;;;;;40.00;27.40;;;;;;;12.42;49.72;99024.21;109675;1251;74568;-52
2023/10/19 06:55:22;;;;;;;41.50;26.60;;;;;;;12.39;49.66;99023.59;109704;1251;68693;-52
2023/10/19 06:57:53;;;;;;;36.90;28.00;;;;;;;12.59;49.29;99022.01;109647;1251;72058;-52
2023/10/19 07:00:21;;;;;;;35.50;25.30;;;;;;;12.90;48.17;99023.35;109591;1251;59760;-52
2023/10/19 07:02:51;;;;;;;51.30;28.00;;;;;;;12.86;47.90;99027.69;109640;1250;58929;-52
2023/10/19 07:05:21;;;;;;;41.40;28.30;;;;;;;13.01;47.83;99029.98;109622;1251;74962;-52
2023/10/19 07:07:50;;;;;;;46.00;28.60;;;;;;;13.15;47.38;99029.34;109645;1251;67531;-52
2023/10/19 07:10:17;;;;;;;35.20;24.50;;;;;;;13.14;47.64;99024.23;109630;1250;72366;-51
2023/10/19 07:12:46;;;;;;;42.60;25.60;;;;;;;13.13;47.57;99022.24;109619;1251;60962;-51
2023/10/19 07:15:18;;;;;;;38.50;27.40;;;;;;;12.92;48.20;99015.51;109690;1251;59363;-52
2023/10/19 07:17:46;;;;;;;54.40;36.10;;;;;;;13.73;46.59;99013.84;109636;1252;74633;-51
2023/10/19 07:20:28;;;;;;;120.00;62.40;;;;;;;14.05;45.35;99010.38;109586;1251;67731;-52
2023/10/19 07:22:55;;;;;;;69.50;47.10;;;;;;;14.67;44.26;99012.22;109594;1253;71298;-51
2023/10/19 07:25:25;;;;;;;45.00;30.70;;;;;;;14.81;43.77;99011.47;109567;1253;59960;-52
2023/10/19 07:27:52;;;;;;;40.30;28.70;;;;;;;14.99;43.72;99009.18;109593;1253;59115;-52
2023/10/19 07:30:26;;;;;;;41.90;29.90;;;;;;;15.23;43.11;99010.34;109576;1253;74688;-52
2023/10/19 07:32:58;;;;;;;33.10;23.30;;;;;;;15.54;42.50;99010.37;109601;1252;67618;-52
2023/10/19 07:35:26;;;;;;;39.70;27.00;;;;;;;15.68;41.91;99006.83;109634;1251;71264;-51
2023/10/19 07:37:54;;;;;;;33.60;22.90;;;;;;;15.39;41.98;99005.48;109696;1251;58911;-52
2023/10/19 07:40:20;;;;;;;28.90;21.50;;;;;;;15.65;41.90;99010.87;109717;1251;60018;-52
2023/10/19 07:42:49;;;;;;;33.50;21.80;;;;;;;15.70;41.55;99008.33;109627;1251;73223;-51
2023/10/19 07:45:18;;;;;;;28.30;20.80;;;;;;;15.65;41.83;99007.35;109635;1251;67235;-52
2023/10/19 07:47:46;;;;;;;37.00;28.50;;;;;;;15.95;41.16;99006.55;109658;1252;72729;-52
2023/10/19 07:50:15;;;;;;;24.50;18.70;;;;;;;16.38;40.75;99015.16;109554;1253;59366;-52
2023/10/19 07:52:47;;;;;;;29.10;19.30;;;;;;;16.40;40.31;99011.45;109337;1252;59026;-52
2023/10/19 07:55:14;;;;;;;27.70;19.50;;;;;;;16.33;40.36;99004.93;109341;1253;73273;-52
2023/10/19 07:57:41;;;;;;;26.70;19.60;;;;;;;16.54;40.08;99001.97;109572;1253;67436;-52
2023/10/19 08:00:13;;;;;;;23.00;17.70;;;;;;;16.42;40.11;98999.74;109563;1252;72397;-53
2023/10/19 08:02:46;;;;;;;26.10;18.90;;;;;;;16.96;39.53;99005.38;109591;1252;60482;-52
2023/10/19 08:05:13;;;;;;;25.20;19.60;;;;;;;16.93;39.36;99002.41;109615;1255;58929;-52
2023/10/19 08:07:42;;;;;;;25.00;18.70;;;;;;;16.59;39.57;99000.38;109590;1252;74582;-51
2023/10/19 08:10:10;;;;;;;23.30;17.50;;;;;;;16.86;39.33;99001.73;109618;1253;68596;-52
2023/10/19 08:12:37;;;;;;;;;;;;;;;16.60;39.32;99000.14;109236;1251;71957;-52
2023/10/19 08:15:06;;;;;;;35.80;21.50;;;;;;;16.72;39.35;98996.73;109595;1252;58987;-52
2023/10/19 08:17:38;;;;;;;28.70;22.10;;;;;;;16.91;39.23;98998.50;109626;1252;59041;-52
2023/10/19 08:20:09;;;;;;;24.50;17.30;;;;;;;17.22;38.83;98998.59;109582;1253;72477;-52
2023/10/19 08:22:39;;;;;;;19.50;14.10;;;;;;;17.51;38.41;98999.56;109607;1252;68600;-52
2023/10/19 08:25:11;;;;;;;27.80;18.70;;;;;;;17.37;38.33;98995.05;109594;1252;72760;-52
2023/10/19 08:27:44;;;;;;;23.10;15.80;;;;;;;17.38;38.34;98994.65;109560;1252;58995;-52
2023/10/19 08:30:13;;;;;;;23.00;17.00;;;;;;;17.38;38.02;98993.66;109262;1251;60050;-53
2023/10/19 08:32:41;;;;;;;;;;;;;;;17.65;37.73;98993.87;109612;1253;74572;-52
2023/10/19 08:35:12;;;;;;;27.90;18.00;;;;;;;17.89;37.59;98993.10;109586;1252;70072;-52
2023/10/19 08:37:39;;;;;;;23.30;15.70;;;;;;;18.09;37.02;98994.59;109225;1252;73882;-52
2023/10/19 08:40:14;;;;;;;20.90;13.90;;;;;;;18.19;36.82;99002.05;109510;1253;59613;-51
2023/10/19 08:42:48;;;;;;;26.10;16.10;;;;;;;17.79;37.45;99002.38;109303;1252;60284;-52
2023/10/19 08:45:16;;;;;;;18.20;14.00;;;;;;;17.67;37.53;98999.63;109536;1253;73500;-52
2023/10/19 08:47:59;;;;;;;20.30;13.70;;;;;;;17.63;37.43;99000.65;109358;1250;67656;-52
2023/10/19 08:50:30;;;;;;;17.90;13.00;;;;;;;17.77;36.91;99001.98;109551;1251;73089;-52
2023/10/19 08:52:58;;;;;;;17.90;13.10;;;;;;;18.14;36.58;98997.16;109672;1250;60151;-52
2023/10/19 08:55:25;;;;;;;22.40;14.40;;;;;;;18.19;36.38;98994.13;109666;1251;60140;-52
2023/10/19 08:58:11;;;;;;;17.00;12.40;;;;;;;18.53;35.92;98993.80;109640;1253;74450;-52
2023/10/19 09:00:44;;;;;;;14.20;10.30;;;;;;;18.41;35.67;98990.46;109202;1251;67795;-52
2023/10/19 09:03:16;;;;;;;16.40;12.90;;;;;;;18.82;35.40;98995.45;109623;1251;71513;-52
2023/10/19 09:05:45;;;;;;;15.80;12.20;;;;;;;19.08;34.96;98996.16;109666;1252;58965;-52
2023/10/19 09:08:14;;;;;;;18.30;14.00;;;;;;;18.94;35.00;98995.09;109644;1253;60434;-54
2023/10/19 09:10:45;;;;;;;17.70;14.10;;;;;;;19.01;35.15;98994.98;109667;1251;73309;-52
2023/10/19 09:13:12;;;;;;;16.70;10.50;;;;;;;18.71;35.49;98993.60;109662;1251;68549;-52
2023/10/19 09:15:39;;;;;;;19.20;13.70;;;;;;;18.52;35.65;98994.30;109640;1251;71307;-52
2023/10/19 09:18:22;;;;;;;15.00;11.40;;;;;;;18.72;35.95;98994.94;109630;1253;59080;-51
2023/10/19 09:21:07;;;;;;;13.60;9.30;;;;;;;18.36;36.34;98990.45;109602;1252;60120;-52
2023/10/19 09:23:34;;;;;;;18.10;11.50;;;;;;;18.83;35.68;98991.63;109463;1253;76081;-52
2023/10/19 09:26:07;;;;;;;14.40;11.80;;;;;;;19.16;35.37;98987.73;109579;1255;67773;-52
2023/10/19 09:28:36;;;;;;;20.10;12.40;;;;;;;19.01;35.56;98987.98;109586;1252;72671;-52
2023/10/19 09:31:03;;;;;;;17.60;13.30;;;;;;;19.43;35.09;98988.75;109642;1252;58975;-52
2023/10/19 09:33:33;;;;;;;13.60;11.00;;;;;;;19.16;35.55;98986.14;109645;1253;60378;-52
2023/10/19 09:36:12;;;;;;;15.90;11.80;;;;;;;18.92;35.42;98983.23;109746;1250;74432;-53
2023/10/19 09:38:53;;;;;;;19.90;13.00;;;;;;;18.39;35.71;98978.27;109686;1250;68255;-52
2023/10/19 09:41:21;;;;;;;15.10;11.20;;;;;;;18.88;35.81;98981.59;109164;1251;72702;-53
2023/10/19 09:43:49;;;;;;;14.10;10.60;;;;;;;19.32;34.65;98978.56;109327;1251;59006;-52
2023/10/19 09:46:42;;;;;;;16.60;9.90;;;;;;;19.37;34.87;98972.44;109354;1252;58993;-52
2023/10/19 09:49:11;;;;;;;14.90;11.20;;;;;;;19.13;34.91;98964.14;109141;1257;73597;-53
2023/10/19 09:51:38;;;;;;;19.10;12.30;;;;;;;19.31;34.77;98961.48;109186;1257;67461;-53
2023/10/19 09:54:14;;;;;;;14.50;9.70;;;;;;;19.19;34.81;98955.85;109030;1257;72632;-50
2023/10/19 09:56:44;;;;;;;17.30;10.50;;;;;;;19.32;34.45;98952.80;109082;1257;59048;-51
2023/10/19 09:59:51;;;;;;;14.10;9.30;;;;;;;19.09;34.66;98950.06;109213;1257;59132;-51
2023/10/19 10:02:19;;;;;;;15.60;10.40;;;;;;;19.28;34.01;98944.34;108662;1265;75987;-51
2023/10/19 10:04:46;;;;;;;11.50;9.10;;;;;;;18.92;34.83;98940.77;108518;1268;68656;-51
2023/10/19 10:07:13;;;;;;;16.30;11.40;;;;;;;19.29;34.15;98938.81;108498;1268;71404;-53
2023/10/19 10:09:47;;;;;;;11.60;8.80;;;;;;;19.54;33.68;98940.31;108494;1268;59537;-51
2023/10/19 10:12:29;;;;;;;11.30;8.30;;;;;;;19.54;33.84;98936.00;108459;1268;61597;-51
2023/10/19 10:14:59;;;;;;;10.50;8.40;;;;;;;19.65;33.83;98932.67;108219;1268;74749;-51
2023/10/19 10:17:28;;;;;;;12.60;9.80;;;;;;;18.91;34.42;98927.58;108461;1267;67400;-52
2023/10/19 10:20:18;;;;;;;12.40;10.10;;;;;;;18.87;34.68;98916.38;108509;1267;72749;-51
2023/10/19 10:22:45;;;;;;;36.60;24.90;;;;;;;19.23;34.07;98923.38;108110;1274;59080;-52
2023/10/19 10:25:27;;;;;;;73.80;42.70;;;;;;;18.95;34.67;98919.73;108087;1274;59231;-51
2023/10/19 10:27:54;;;;;;;51.70;30.00;;;;;;;19.46;34.13;98921.82;108464;1267;74798;-51
2023/10/19 10:30:21;;;;;;;88.10;46.00;;;;;;;19.73;33.57;98920.48;108512;1267;68697;-51
2023/10/19 10:32:55;;;;;;;33.20;19.60;;;;;;;19.29;34.11;98918.89;108464;1267;71394;-51
2023/10/19 10:35:40;;;;;;;22.30;15.00;;;;;;;18.95;34.10;98918.64;108554;1264;60347;-51
2023/10/19 10:38:14;;;;;;;15.70;9.70;;;;;;;19.07;34.12;98917.17;109038;1259;59530;-52
2023/10/19 10:40:47;;;;;;;50.10;29.70;;;;;;;18.84;34.45;98906.30;109005;1259;74582;-51
2023/10/19 10:43:15;;;;;;;156.40;90.90;;;;;;;18.55;35.08;98900.47;109067;1260;68648;-51
2023/10/19 10:45:42;;;;;;;32.00;17.90;;;;;;;18.55;35.08;98905.83;109072;1258;71626;-51
2023/10/19 10:48:16;;;;;;;67.50;32.10;;;;;;;18.51;35.00;98908.20;109060;1257;59173;-52
2023/10/19 10:50:43;;;;;;;62.40;34.90;;;;;;;19.18;34.23;98907.72;109114;1257;59765;-51
2023/10/19 10:53:11;;;;;;;34.20;20.50;;;;;;;18.85;34.48;98899.03;109067;1257;74671;-51
2023/10/19 10:55:39;;;;;;;14.40;9.90;;;;;;;19.41;34.18;98898.77;109104;1259;68056;-51
2023/10/19 10:58:06;;;;;;;16.30;11.20;;;;;;;19.75;33.28;98898.84;109056;1257;71813;-52
2023/10/19 11:00:36;;;;;;;15.70;11.10;;;;;;;20.08;33.01;98894.95;109491;1251;59423;-52
2023/10/19 11:03:08;;;;;;;43.50;26.40;;;;;;;20.24;32.96;98892.90;109665;1251;60218;-52
2023/10/19 11:05:37;;;;;;;38.40;23.10;;;;;;;19.58;33.52;98883.48;109667;1251;73444;-51
2023/10/19 11:08:17;;;;;;;62.50;39.50;;;;;;;19.37;33.72;98876.44;109589;1251;70036;-52
2023/10/19 11:10:46;;;;;;;54.30;33.80;;;;;;;19.48;33.57;98872.30;109599;1251;72559;-53
2023/10/19 11:13:14;;;;;;;20.10;14.60;;;;;;;19.70;33.37;98873.23;109551;1254;61067;-52
2023/10/19 11:15:55;;;;;;;37.80;23.80;;;;;;;19.89;33.43;98870.05;109632;1250;58967;-52
2023/10/19 11:18:29;;;;;;;17.90;10.70;;;;;;;19.51;33.89;98864.92;109640;1253;74633;-52
2023/10/19 11:20:59;;;;;;;37.20;20.70;;;;;;;19.37;33.94;98862.89;109627;1255;68423;-52
2023/10/19 11:23:48;;;;;;;48.30;27.00;;;;;;;19.39;34.57;98864.48;109566;1252;72358;-52
2023/10/19 11:26:21;;;;;;;21.10;14.20;;;;;;;19.89;33.40;98863.29;109531;1253;59471;-52
2023/10/19 11:28:57;;;;;;;17.30;11.80;;;;;;;19.87;33.68;98858.69;109548;1253;60158;-52
2023/10/19 11:31:23;;;;;;;26.60;15.80;;;;;;;19.61;33.66;98856.01;109589;1253;74632;-52
2023/10/19 11:33:51;;;;;;;11.50;8.00;;;;;;;19.25;33.97;98846.97;109576;1251;67463;-53
2023/10/19 11:36:18;;;;;;;81.30;44.50;;;;;;;19.04;34.64;98839.80;109771;1251;71310;-52
2023/10/19 11:38:46;;;;;;;30.90;16.00;;;;;;;19.68;33.88;98836.91;109721;1254;61580;-52
2023/10/19 11:41:14;;;;;;;41.10;25.80;;;;;;;19.74;33.66;98836.20;109708;1253;60364;-53
2023/10/19 11:43:42;;;;;;;83.60;42.30;;;;;;;19.85;33.71;98834.98;109589;1252;74482;-53
2023/10/19 11:46:09;;;;;;;62.20;34.50;;;;;;;20.19;32.90;98834.80;109623;1252;67419;-52